Etusivu
METAR-TAF:

METAR-TAF

Lentoasemat :

Ermelo, Etelä-Afrikka

Leveyspiiri: 26-29-44S, Pituuspiiri: 29-58-47E, korkeus merenpinnasta: 1737 m

Tämänhetkinen sää

Tämä raportti tehtiin 2 tuntia ja 18 minuuttia sitten, kello 17.24 UTC
Tuuli 5 kn idästä
Lämpötila 18°C
Kosteus 77%
Ilmanpaine 1022 hPa

METAR: FAEO 191724Z AUTO 08005KT //// // ////// 18/14 Q1022

Aika: 21:42 (19:42 UTC)


TAF: puuttuu

Säähavainnot ja -ennusteet yli 4000 lentoasemalta (METAR- ja TAF-raportit).

Käytössä olevat sääasemat on merkitty karttaan keltaisilla ja punaisilla pisteillä.

Aseta hiiri pisteen päälle nähdäksesi sääaseman nimen.

Klikkaa sitten nähdäksesi säähavainnot ja -ennusteet.

Kartan vaihtaminen: klikkaa mustalla rastilla varustettuja vihreitä pisteitä, niin voit zoomata sisään; viivalla varustettua vihreää pistettä, niin voit zoomata ulos tai vihreitä nuolia, niin pääset viereisille kartoille.


METAR-TAF: